createdAt,value
2018-04-25T00:01:51.080Z,13.84
2018-04-25T00:04:18.626Z,13.85
2018-04-25T00:06:46.161Z,13.97
2018-04-25T00:09:13.690Z,14.01
2018-04-25T00:11:41.281Z,13.90
2018-04-25T00:14:08.805Z,13.97
2018-04-25T00:16:36.398Z,13.99
2018-04-25T00:19:03.922Z,14.02
2018-04-25T00:21:31.452Z,14.05
2018-04-25T00:23:59.013Z,14.04
2018-04-25T00:26:26.539Z,13.93
2018-04-25T00:28:54.063Z,13.74
2018-04-25T00:31:21.590Z,13.76
2018-04-25T00:33:49.224Z,13.83
2018-04-25T00:36:16.772Z,13.92
2018-04-25T00:38:44.305Z,13.93
2018-04-25T00:41:11.823Z,13.87
2018-04-25T00:43:39.458Z,13.70
2018-04-25T00:46:06.984Z,13.74
2018-04-25T00:48:34.514Z,13.78
2018-04-25T00:51:02.048Z,13.74
2018-04-25T00:53:29.591Z,13.67
2018-04-25T00:55:57.156Z,13.77
2018-04-25T00:58:24.681Z,13.78
2018-04-25T01:00:52.204Z,13.81
2018-04-25T01:03:19.833Z,13.82
2018-04-25T01:05:47.351Z,13.85
2018-04-25T01:08:14.887Z,13.69
2018-04-25T01:10:42.428Z,13.64
2018-04-25T01:13:09.959Z,13.73
2018-04-25T01:15:37.497Z,13.69
2018-04-25T01:18:05.089Z,13.64
2018-04-25T01:20:32.659Z,13.76
2018-04-25T01:23:00.197Z,13.80
2018-04-25T01:25:31.267Z,13.76
2018-04-25T01:30:59.811Z,13.72
2018-04-25T01:33:38.143Z,13.75
2018-04-25T01:36:07.575Z,13.65
2018-04-25T01:38:39.537Z,13.55
2018-04-25T01:41:09.789Z,13.57
2018-04-25T01:43:38.156Z,13.68
2018-04-25T01:46:08.563Z,13.62
2018-04-25T01:48:37.050Z,13.61
2018-04-25T01:51:04.049Z,13.68
2018-04-25T01:53:43.232Z,13.70
2018-04-25T01:56:22.764Z,13.71
2018-04-25T01:59:02.308Z,13.73
2018-04-25T02:01:29.300Z,13.70
2018-04-25T02:03:56.894Z,13.73
2018-04-25T02:06:24.463Z,13.76
2018-04-25T02:08:52.000Z,13.72
2018-04-25T02:11:19.533Z,13.80
2018-04-25T02:13:47.081Z,13.83
2018-04-25T02:16:14.614Z,13.86
2018-04-25T02:18:42.166Z,13.87
2018-04-25T02:21:09.842Z,13.84
2018-04-25T02:23:37.379Z,13.89
2018-04-25T02:26:04.950Z,13.74
2018-04-25T02:28:32.468Z,13.66
2018-04-25T02:31:00.077Z,13.73
2018-04-25T02:33:27.615Z,13.63
2018-04-25T02:35:55.135Z,13.61
2018-04-25T02:38:22.671Z,13.66
2018-04-25T02:40:50.213Z,13.64
2018-04-25T02:43:17.759Z,13.67
2018-04-25T02:45:45.290Z,13.63
2018-04-25T02:48:12.893Z,13.52
2018-04-25T02:50:40.457Z,13.48
2018-04-25T02:53:08.013Z,13.41
2018-04-25T02:55:35.527Z,13.36
2018-04-25T02:58:03.079Z,13.37
2018-04-25T03:00:30.697Z,13.38
2018-04-25T03:02:58.233Z,13.31
2018-04-25T03:05:25.817Z,13.38
2018-04-25T03:07:53.357Z,13.39
2018-04-25T03:10:20.897Z,13.36
2018-04-25T03:12:48.444Z,13.34
2018-04-25T03:15:15.994Z,13.35
2018-04-25T03:17:43.531Z,13.32
2018-04-25T03:20:11.066Z,13.28
2018-04-25T03:22:38.679Z,13.39
2018-04-25T03:25:06.155Z,13.37
2018-04-25T03:27:33.677Z,13.44
2018-04-25T03:30:01.312Z,13.47
2018-04-25T03:32:28.873Z,13.49
2018-04-25T03:34:56.397Z,13.35
2018-04-25T03:37:23.937Z,13.36
2018-04-25T03:39:51.557Z,13.30
2018-04-25T03:42:19.080Z,13.32
2018-04-25T03:44:46.619Z,13.36
2018-04-25T03:47:14.151Z,13.44
2018-04-25T03:49:41.704Z,13.44
2018-04-25T03:52:09.350Z,13.38
2018-04-25T03:54:36.912Z,13.36
2018-04-25T03:57:04.434Z,13.46
2018-04-25T03:59:31.960Z,13.38
2018-04-25T04:01:59.501Z,13.41
2018-04-25T04:04:27.100Z,13.35
2018-04-25T04:06:54.659Z,13.36
2018-04-25T04:09:22.243Z,13.46
2018-04-25T04:11:49.784Z,13.30
2018-04-25T04:14:17.332Z,13.33
2018-04-25T04:16:45.261Z,13.27
2018-04-25T04:19:12.778Z,13.27
2018-04-25T04:21:40.372Z,13.18
2018-04-25T04:24:07.915Z,13.15
2018-04-25T04:26:35.440Z,13.30
2018-04-25T04:29:02.988Z,13.29
2018-04-25T04:31:30.520Z,13.23
2018-04-25T04:33:58.046Z,13.29
2018-04-25T04:36:25.578Z,13.31
2018-04-25T04:38:53.109Z,13.30
2018-04-25T04:41:20.756Z,13.25
2018-04-25T04:43:48.313Z,13.24
2018-04-25T04:46:15.849Z,13.36
2018-04-25T04:48:43.433Z,13.39
2018-04-25T04:51:10.970Z,13.42
2018-04-25T04:53:38.558Z,13.40
2018-04-25T04:56:06.086Z,13.44
2018-04-25T04:58:33.617Z,13.29
2018-04-25T05:01:01.271Z,13.29
2018-04-25T05:03:28.897Z,13.42
2018-04-25T05:05:56.558Z,13.34
2018-04-25T05:08:24.169Z,13.35
2018-04-25T05:10:51.638Z,13.37
2018-04-25T05:13:19.182Z,13.43
2018-04-25T05:15:46.706Z,13.49
2018-04-25T05:18:14.361Z,13.41
2018-04-25T05:20:41.919Z,13.55
2018-04-25T05:23:09.448Z,13.54
2018-04-25T05:25:36.967Z,13.56
2018-04-25T05:28:04.496Z,13.56
2018-04-25T05:30:32.025Z,13.56
2018-04-25T05:32:59.543Z,13.59
2018-04-25T05:35:27.175Z,13.56
2018-04-25T05:37:54.731Z,13.55
2018-04-25T05:40:22.252Z,13.54
2018-04-25T05:42:49.788Z,13.57
2018-04-25T05:45:17.347Z,13.51
2018-04-25T05:47:44.874Z,13.51
2018-04-25T05:50:12.400Z,13.61
2018-04-25T05:52:39.920Z,13.63
2018-04-25T05:55:07.450Z,13.73
2018-04-25T05:57:34.977Z,13.72
2018-04-25T06:00:02.575Z,13.64
2018-04-25T06:02:30.291Z,13.69
2018-04-25T06:04:58.475Z,13.82
2018-04-25T06:07:26.028Z,13.80
2018-04-25T06:09:53.556Z,13.80
2018-04-25T06:12:21.100Z,13.82
2018-04-25T06:14:48.639Z,13.81
2018-04-25T06:17:16.178Z,13.81
2018-04-25T06:19:43.793Z,13.86
2018-04-25T06:22:11.329Z,13.86
2018-04-25T06:24:39.047Z,13.87
2018-04-25T06:27:06.600Z,13.94
2018-04-25T06:29:34.130Z,13.96
2018-04-25T06:32:01.773Z,13.99
2018-04-25T06:34:29.301Z,13.93
2018-04-25T06:36:56.862Z,13.99
2018-04-25T06:39:24.467Z,14.02
2018-04-25T06:41:52.013Z,14.08
2018-04-25T06:44:19.543Z,14.13
2018-04-25T06:46:47.135Z,14.13
2018-04-25T06:49:14.691Z,14.17
2018-04-25T06:51:42.204Z,14.19
2018-04-25T06:54:09.781Z,14.25
2018-04-25T06:56:37.385Z,14.20
2018-04-25T06:59:04.928Z,14.30
2018-04-25T07:01:32.456Z,14.28
2018-04-25T07:03:59.983Z,14.37
2018-04-25T07:06:27.509Z,14.40
2018-04-25T07:08:55.032Z,14.47
2018-04-25T07:11:22.555Z,14.50
2018-04-25T07:13:50.086Z,14.44
2018-04-25T07:16:17.612Z,14.41
2018-04-25T07:18:45.191Z,14.43
2018-04-25T07:21:12.706Z,14.49
2018-04-25T07:23:40.224Z,14.53
2018-04-25T07:26:07.753Z,14.60
2018-04-25T07:28:35.277Z,14.60
2018-04-25T07:31:02.801Z,14.61
2018-04-25T07:33:30.340Z,14.59
2018-04-25T07:35:57.892Z,14.60
2018-04-25T07:38:25.451Z,14.64
2018-04-25T07:40:53.036Z,14.66
2018-04-25T07:43:20.580Z,14.66
2018-04-25T07:45:48.122Z,14.75
2018-04-25T07:48:15.652Z,14.72
2018-04-25T07:50:43.271Z,14.78
2018-04-25T07:53:10.838Z,14.85
2018-04-25T07:55:38.396Z,14.97
2018-04-25T07:58:05.956Z,15.01
2018-04-25T08:00:33.521Z,15.02
2018-04-25T08:03:01.082Z,15.08
2018-04-25T08:05:28.603Z,15.15
2018-04-25T08:07:56.211Z,15.39
2018-04-25T08:10:23.823Z,15.48
2018-04-25T08:13:03.004Z,15.59
2018-04-25T08:15:42.550Z,16.09
2018-04-25T08:18:21.943Z,16.06
2018-04-25T08:23:57.012Z,16.11
2018-04-25T08:26:24.589Z,16.31
2018-04-25T08:28:52.119Z,16.24
2018-04-25T08:31:19.644Z,16.23
2018-04-25T08:33:47.264Z,16.19
2018-04-25T08:36:14.785Z,16.20
2018-04-25T08:38:42.378Z,16.24
2018-04-25T08:41:09.923Z,16.22
2018-04-25T08:43:37.509Z,16.24
2018-04-25T08:46:05.055Z,16.26
2018-04-25T08:48:32.595Z,16.28
2018-04-25T08:51:00.142Z,16.39
2018-04-25T08:53:27.672Z,16.53
2018-04-25T08:55:55.234Z,16.66
2018-04-25T08:58:22.856Z,16.98
2018-04-25T09:00:50.387Z,17.31
2018-04-25T09:03:17.912Z,17.47
2018-04-25T09:05:45.515Z,17.78
2018-04-25T09:08:12.987Z,18.07
2018-04-25T09:10:40.500Z,19.13
2018-04-25T09:13:08.110Z,19.43
2018-04-25T09:15:35.654Z,20.94
2018-04-25T09:18:03.247Z,22.06
2018-04-25T09:20:30.763Z,22.73
2018-04-25T09:22:58.350Z,23.97
2018-04-25T09:25:25.922Z,23.01
2018-04-25T09:27:53.455Z,24.05
2018-04-25T09:30:20.979Z,23.54
2018-04-25T09:32:48.590Z,23.34
2018-04-25T09:35:16.133Z,24.01
2018-04-25T09:37:43.652Z,24.27
2018-04-25T09:40:11.183Z,24.38
2018-04-25T09:42:38.710Z,23.90
2018-04-25T09:45:06.228Z,23.25
2018-04-25T09:47:33.859Z,22.84
2018-04-25T09:50:01.420Z,22.93
2018-04-25T09:52:28.947Z,23.43
2018-04-25T09:54:56.514Z,23.19
2018-04-25T09:57:24.056Z,22.83
2018-04-25T09:59:51.651Z,22.17
2018-04-25T10:02:24.938Z,21.88
2018-04-25T10:04:55.561Z,22.32
2018-04-25T10:07:23.099Z,22.69
2018-04-25T10:09:50.715Z,22.37
2018-04-25T10:12:18.268Z,22.35
2018-04-25T10:14:45.794Z,22.67
2018-04-25T10:17:13.374Z,22.67
2018-04-25T10:19:40.865Z,23.14
2018-04-25T10:22:08.495Z,23.55
2018-04-25T10:24:36.045Z,23.57
2018-04-25T10:27:03.564Z,23.69
2018-04-25T10:29:31.075Z,22.59
2018-04-25T10:31:58.699Z,22.52
2018-04-25T10:34:26.156Z,22.25
2018-04-25T10:36:53.756Z,20.98
2018-04-25T10:39:21.297Z,21.53
2018-04-25T10:41:48.837Z,21.90
2018-04-25T10:44:16.379Z,21.84
2018-04-25T10:46:43.949Z,21.58
2018-04-25T10:49:11.517Z,21.26
2018-04-25T10:51:39.059Z,20.78
2018-04-25T10:54:06.735Z,20.33
2018-04-25T10:56:34.250Z,20.55
2018-04-25T10:59:01.772Z,20.31
2018-04-25T11:01:29.295Z,19.93
2018-04-25T11:03:56.992Z,19.20
2018-04-25T11:06:24.559Z,19.28
2018-04-25T11:08:52.083Z,18.54
2018-04-25T11:11:19.635Z,18.26
2018-04-25T11:13:47.167Z,17.76
2018-04-25T11:16:14.693Z,17.51
2018-04-25T11:18:42.258Z,17.59
2018-04-25T11:21:09.811Z,16.71
2018-04-25T11:23:37.373Z,16.67
2018-04-25T11:26:04.895Z,16.73
2018-04-25T11:28:32.419Z,16.77
2018-04-25T11:30:59.978Z,16.50
2018-04-25T11:33:27.507Z,16.43
2018-04-25T11:35:55.107Z,16.33
2018-04-25T11:38:22.640Z,16.39
2018-04-25T11:40:50.164Z,16.58
2018-04-25T11:43:17.787Z,16.65
2018-04-25T11:45:45.315Z,16.52
2018-04-25T11:48:12.837Z,16.62
2018-04-25T11:50:40.463Z,16.83
2018-04-25T11:53:08.004Z,16.81
2018-04-25T11:55:35.588Z,17.11
2018-04-25T11:58:03.143Z,17.17
2018-04-25T12:00:30.678Z,17.04
2018-04-25T12:02:58.273Z,17.04
2018-04-25T12:05:25.792Z,17.11
2018-04-25T12:07:53.382Z,17.28
2018-04-25T12:10:20.946Z,17.49
2018-04-25T12:12:48.508Z,17.50
2018-04-25T12:15:16.019Z,17.48
2018-04-25T12:17:43.625Z,17.60
2018-04-25T12:20:11.150Z,17.74
2018-04-25T12:22:38.681Z,17.81
2018-04-25T12:25:06.376Z,17.90
2018-04-25T12:27:33.987Z,17.98
2018-04-25T12:30:01.499Z,18.01
2018-04-25T12:32:29.007Z,18.12
2018-04-25T12:34:56.538Z,17.95
2018-04-25T12:37:24.067Z,17.97
2018-04-25T12:39:51.596Z,17.90
2018-04-25T12:42:19.252Z,17.70
2018-04-25T12:44:46.885Z,17.57
2018-04-25T12:47:14.409Z,17.65
2018-04-25T12:49:41.973Z,17.57
2018-04-25T12:52:09.560Z,17.57
2018-04-25T12:54:37.084Z,17.43
2018-04-25T12:57:04.681Z,17.47
2018-04-25T12:59:32.212Z,17.58
2018-04-25T13:01:59.737Z,17.71
2018-04-25T13:04:27.292Z,17.69
2018-04-25T13:06:54.933Z,17.81
2018-04-25T13:09:22.487Z,17.87
2018-04-25T13:11:50.029Z,17.95
2018-04-25T13:14:17.553Z,17.97
2018-04-25T13:16:45.077Z,17.97
2018-04-25T13:19:12.634Z,17.97
2018-04-25T13:21:40.355Z,17.99
2018-04-25T13:24:07.963Z,17.84
2018-04-25T13:26:35.492Z,17.93
2018-04-25T13:29:03.041Z,17.81
2018-04-25T13:31:30.571Z,17.81
2018-04-25T13:33:58.152Z,17.71
2018-04-25T13:36:25.674Z,17.69
2018-04-25T13:38:53.311Z,17.74
2018-04-25T13:41:20.995Z,17.78
2018-04-25T13:43:48.632Z,17.74
2018-04-25T13:46:16.164Z,17.79
2018-04-25T13:48:43.751Z,17.75
2018-04-25T13:51:11.311Z,17.75
2018-04-25T13:53:38.833Z,17.36
2018-04-25T13:56:06.373Z,17.13
2018-04-25T13:58:34.060Z,17.17
2018-04-25T14:01:01.787Z,17.17
2018-04-25T14:03:29.320Z,17.23
2018-04-25T14:05:56.839Z,17.13
2018-04-25T14:08:24.361Z,17.07
2018-04-25T14:10:51.995Z,17.06
2018-04-25T14:13:19.551Z,17.05
2018-04-25T14:15:47.189Z,17.02
2018-04-25T14:18:14.884Z,16.96
2018-04-25T14:20:42.418Z,16.86
2018-04-25T14:23:09.951Z,16.78
2018-04-25T14:25:37.495Z,16.74
2018-04-25T14:28:05.108Z,16.58
2018-04-25T14:30:32.634Z,16.23
2018-04-25T14:33:00.309Z,16.22
2018-04-25T14:35:27.861Z,16.09
2018-04-25T14:37:55.464Z,16.14
2018-04-25T14:40:23.024Z,16.01
2018-04-25T14:42:50.549Z,15.99
2018-04-25T14:45:18.063Z,15.95
2018-04-25T14:47:45.585Z,15.91
2018-04-25T14:50:13.181Z,15.86
2018-04-25T14:52:40.851Z,15.91
2018-04-25T14:55:08.493Z,15.80
2018-04-25T14:57:36.011Z,15.69
2018-04-25T15:00:03.548Z,15.74
2018-04-25T15:02:31.068Z,15.67
2018-04-25T15:04:58.622Z,15.64
2018-04-25T15:07:26.178Z,15.59
2018-04-25T15:09:53.746Z,15.52
2018-04-25T15:12:21.406Z,15.56
2018-04-25T15:14:48.963Z,15.51
2018-04-25T15:17:16.725Z,15.51
2018-04-25T15:19:44.311Z,15.28
2018-04-25T15:22:12.058Z,15.16
2018-04-25T15:24:39.593Z,15.07
2018-04-25T15:27:07.151Z,15.11
2018-04-25T15:29:35.112Z,15.10
2018-04-25T15:32:02.652Z,15.10
2018-04-25T15:34:30.197Z,15.10
2018-04-25T15:36:57.720Z,15.06
2018-04-25T15:39:25.247Z,15.05
2018-04-25T15:41:52.797Z,15.01
2018-04-25T15:44:20.471Z,15.03
2018-04-25T15:46:48.131Z,15.04
2018-04-25T15:49:15.756Z,15.09
2018-04-25T15:51:43.292Z,15.12
2018-04-25T15:54:10.909Z,14.94
2018-04-25T15:56:38.449Z,14.82
2018-04-25T15:59:06.009Z,14.78
2018-04-25T16:01:33.629Z,14.77
2018-04-25T16:04:01.187Z,14.63
2018-04-25T16:06:28.735Z,14.62
2018-04-25T16:08:56.310Z,14.56
2018-04-25T16:11:23.831Z,14.57
2018-04-25T16:13:51.435Z,14.52
2018-04-25T16:16:18.988Z,14.44
2018-04-25T16:18:46.520Z,14.57
2018-04-25T16:21:14.071Z,14.56
2018-04-25T16:23:41.595Z,14.51
2018-04-25T16:26:09.230Z,14.62
2018-04-25T16:28:36.759Z,14.62
2018-04-25T16:31:04.275Z,14.67
2018-04-25T16:33:31.802Z,14.60
2018-04-25T16:35:59.384Z,14.56
2018-04-25T16:38:26.945Z,14.58
2018-04-25T16:40:54.467Z,14.52
2018-04-25T16:43:21.975Z,14.39
2018-04-25T16:45:49.645Z,14.40
2018-04-25T16:48:17.156Z,14.39
2018-04-25T16:50:44.779Z,14.42
2018-04-25T16:53:12.329Z,14.40
2018-04-25T16:55:39.969Z,14.35
2018-04-25T16:58:07.631Z,14.31
2018-04-25T17:00:35.145Z,14.35
2018-04-25T17:03:02.665Z,14.28
2018-04-25T17:05:30.189Z,14.25
2018-04-25T17:07:57.712Z,14.30
2018-04-25T17:10:25.243Z,14.28
2018-04-25T17:12:52.773Z,14.20
2018-04-25T17:15:20.322Z,14.06
2018-04-25T17:17:47.888Z,13.93
2018-04-25T17:20:15.395Z,13.83
2018-04-25T17:22:43.018Z,13.77
2018-04-25T17:25:10.545Z,13.75
2018-04-25T17:27:38.137Z,13.74
2018-04-25T17:30:05.665Z,13.65
2018-04-25T17:32:33.177Z,13.53
2018-04-25T17:35:00.791Z,13.54
2018-04-25T17:37:28.363Z,13.50
2018-04-25T17:39:55.921Z,13.40
2018-04-25T17:42:23.455Z,13.36
2018-04-25T17:44:50.976Z,13.33
2018-04-25T17:47:18.556Z,13.26
2018-04-25T17:49:46.088Z,13.25
2018-04-25T17:52:13.610Z,13.21
2018-04-25T17:54:41.178Z,13.21
2018-04-25T17:57:08.708Z,13.16
2018-04-25T17:59:36.309Z,13.15
2018-04-25T18:02:03.841Z,13.09
2018-04-25T18:04:31.355Z,13.09
2018-04-25T18:06:58.884Z,12.99
2018-04-25T18:09:26.417Z,12.93
2018-04-25T18:11:53.937Z,12.88
2018-04-25T18:14:21.465Z,12.87
2018-04-25T18:16:49.041Z,12.87
2018-04-25T18:19:16.555Z,12.88
2018-04-25T18:21:44.067Z,12.88
2018-04-25T18:24:11.705Z,12.80
2018-04-25T18:26:39.220Z,12.77
2018-04-25T18:29:06.767Z,12.71
2018-04-25T18:31:34.309Z,12.61
2018-04-25T18:34:01.844Z,12.62
2018-04-25T18:36:29.370Z,12.63
2018-04-25T18:38:56.928Z,12.60
2018-04-25T18:41:24.455Z,12.63
2018-04-25T18:43:52.068Z,12.64
2018-04-25T18:46:19.523Z,12.61
2018-04-25T18:48:47.099Z,12.62
2018-04-25T18:51:14.616Z,12.61
2018-04-25T18:53:42.223Z,12.63
2018-04-25T18:56:09.745Z,12.62
2018-04-25T18:58:37.255Z,12.60
2018-04-25T19:01:04.764Z,12.55
2018-04-25T19:03:32.279Z,12.55
2018-04-25T19:05:59.795Z,12.51
2018-04-25T19:08:27.303Z,12.50
2018-04-25T19:10:54.828Z,12.50
2018-04-25T19:13:22.356Z,12.44
2018-04-25T19:15:49.880Z,12.44
2018-04-25T19:18:17.507Z,12.41
2018-04-25T19:20:45.068Z,12.38
2018-04-25T19:23:12.579Z,12.38
2018-04-25T19:25:40.109Z,12.36
2018-04-25T19:28:07.639Z,12.32
2018-04-25T19:30:35.205Z,12.06
2018-04-25T19:33:02.719Z,12.13
2018-04-25T19:35:30.267Z,12.14
2018-04-25T19:37:57.813Z,12.05
2018-04-25T19:40:25.337Z,12.09
2018-04-25T19:42:52.859Z,12.10
2018-04-25T19:45:20.380Z,12.01
2018-04-25T19:47:47.891Z,11.91
2018-04-25T19:50:15.406Z,11.95
2018-04-25T19:52:42.938Z,11.93
2018-04-25T19:55:10.501Z,11.90
2018-04-25T19:57:38.020Z,11.89
2018-04-25T20:00:05.537Z,11.89
2018-04-25T20:02:33.050Z,11.83
2018-04-25T20:05:00.565Z,11.83
2018-04-25T20:07:28.171Z,11.75
2018-04-25T20:09:55.685Z,11.72
2018-04-25T20:12:23.215Z,11.69
2018-04-25T20:14:50.772Z,11.67
2018-04-25T20:17:18.342Z,11.64
2018-04-25T20:19:45.866Z,11.63
2018-04-25T20:22:13.461Z,11.61
2018-04-25T20:24:40.983Z,11.59
2018-04-25T20:27:08.582Z,11.50
2018-04-25T20:29:36.199Z,11.52
2018-04-25T20:32:03.765Z,11.47
2018-04-25T20:34:31.324Z,11.45
2018-04-25T20:36:58.888Z,11.36
2018-04-25T20:39:26.543Z,11.24
2018-04-25T20:41:54.137Z,11.22
2018-04-25T20:44:21.670Z,11.25
2018-04-25T20:46:49.192Z,11.10
2018-04-25T20:49:16.815Z,11.14
2018-04-25T20:51:44.377Z,11.17
2018-04-25T20:54:11.904Z,11.12
2018-04-25T20:56:39.500Z,11.16
2018-04-25T20:59:07.026Z,11.13
2018-04-25T21:01:34.542Z,11.07
2018-04-25T21:04:02.077Z,10.98
2018-04-25T21:06:29.600Z,10.96
2018-04-25T21:08:57.120Z,10.98
2018-04-25T21:11:24.652Z,10.91
2018-04-25T21:13:52.176Z,10.91
2018-04-25T21:16:19.736Z,10.95
2018-04-25T21:18:47.255Z,10.91
2018-04-25T21:21:14.784Z,10.99
2018-04-25T21:23:42.313Z,11.01
2018-04-25T21:26:09.871Z,11.08
2018-04-25T21:28:37.395Z,11.10
2018-04-25T21:31:04.926Z,11.09
2018-04-25T21:33:32.594Z,11.08
2018-04-25T21:36:00.111Z,11.11
2018-04-25T21:38:27.636Z,11.11
2018-04-25T21:40:55.167Z,11.06
2018-04-25T21:43:22.698Z,11.05
2018-04-25T21:45:50.287Z,11.04
2018-04-25T21:48:17.878Z,11.04
2018-04-25T21:50:45.462Z,10.98
2018-04-25T21:53:13.071Z,10.92
2018-04-25T21:55:40.592Z,10.98
2018-04-25T21:58:08.242Z,10.96
2018-04-25T22:00:35.747Z,10.93
2018-04-25T22:03:03.302Z,10.95
2018-04-25T22:05:30.841Z,10.91
2018-04-25T22:07:58.424Z,10.95
2018-04-25T22:10:25.989Z,10.96
2018-04-25T22:12:53.505Z,10.94
2018-04-25T22:15:21.032Z,10.91
2018-04-25T22:17:48.667Z,10.93
2018-04-25T22:20:16.193Z,10.91
2018-04-25T22:22:43.782Z,10.82
2018-04-25T22:25:11.351Z,10.85
2018-04-25T22:27:38.907Z,10.86
2018-04-25T22:30:06.458Z,10.85
2018-04-25T22:32:33.993Z,10.75
2018-04-25T22:35:01.544Z,10.71
2018-04-25T22:37:29.069Z,10.71
2018-04-25T22:39:56.588Z,10.75
2018-04-25T22:42:24.119Z,10.76
2018-04-25T22:44:51.664Z,10.81
2018-04-25T22:47:19.184Z,10.83
2018-04-25T22:49:46.756Z,10.75
2018-04-25T22:52:14.284Z,10.80
2018-04-25T22:54:41.819Z,10.80
2018-04-25T22:57:09.343Z,10.76
2018-04-25T22:59:36.850Z,10.69
2018-04-25T23:02:04.362Z,10.66
2018-04-25T23:04:31.999Z,10.78
2018-04-25T23:06:59.600Z,10.72
2018-04-25T23:09:27.133Z,10.75
2018-04-25T23:11:54.781Z,10.77
2018-04-25T23:14:22.312Z,10.79
2018-04-25T23:16:49.902Z,10.76
2018-04-25T23:19:17.417Z,10.75
2018-04-25T23:21:44.939Z,10.78
2018-04-25T23:24:12.448Z,10.69
2018-04-25T23:26:40.009Z,10.74
2018-04-25T23:29:07.529Z,10.76
2018-04-25T23:31:35.057Z,10.72
2018-04-25T23:34:02.572Z,10.65
2018-04-25T23:36:30.099Z,10.65
2018-04-25T23:38:57.735Z,10.63
2018-04-25T23:41:25.265Z,10.72
2018-04-25T23:43:52.788Z,10.74
2018-04-25T23:46:20.313Z,10.74
2018-04-25T23:48:47.830Z,10.74
2018-04-25T23:51:15.371Z,10.74
2018-04-25T23:53:42.912Z,10.75
2018-04-25T23:56:10.434Z,10.79
2018-04-25T23:58:38.012Z,10.78
